Flight Track Log - Related Links

Times and Time Zones

All times are in EDT time to prevent confusion due to time zone crossing. See the UAL6057 flight status page for this flight to view local times or setup timezone preferences in your user account.

Time Position Orientation Groundspeed Altitude Reporting Facility
EDT Latitude Longitude Course Direction KTS MPH feet Rate Location/Type
Wed 10:48:21 PM 41.9333 -87.9167 180° South 175 201 2,600  Level Chicago TRACON
Wed 10:49:15 PM 41.8833 -87.9167 180° South 216 249 4,300 2,348 Climbing Chicago TRACON
Wed 10:50:16 PM 41.8167 -87.9167 180° South 247 284 7,100 2,481 Climbing Chicago TRACON
Wed 10:51:28 PM 41.7392 -87.9133 178° South 252 290 9,800 2,211 Climbing Chicago Center
Wed 10:52:29 PM 41.6622 -87.9056 176° South 274 315 12,000 2,361 Climbing Chicago Center
Wed 10:53:30 PM 41.5647 -87.8950 175° South 290 334 14,600 1,721 Climbing Chicago Center
Wed 10:54:31 PM 41.4708 -87.8839 175° South 332 382 15,500 1,268 Climbing Chicago Center
Wed 10:55:33 PM 41.3708 -87.8792 178° South 350 403 17,200 1,415 Climbing Chicago Center
Wed 10:56:34 PM 41.2694 -87.8919 185° South 361 415 18,400 1,512 Climbing Chicago Center
Wed 10:57:36 PM 41.1658 -87.8908 180° South 369 425 20,300 1,707 Climbing Chicago Center
Wed 10:58:37 PM 41.0622 -87.8878 179° South 372 428 21,900 1,869 Climbing Chicago Center
Wed 10:59:38 PM 40.9597 -87.8844 179° South 370 426 24,100 2,115 Climbing Chicago Center
Wed 11:00:39 PM 40.8608 -87.8803 178° South 361 415 26,200 1,918 Climbing Chicago Center
Wed 11:01:40 PM 40.7633 -87.8775 179° South 352 405 28,000 1,672 Climbing Chicago Center
Wed 11:02:41 PM 40.6689 -87.8744 179° South 344 396 29,600 1,512 Climbing Chicago Center
Wed 11:03:43 PM 40.5756 -87.8722 179° South 338 389 31,100 1,366 Climbing Chicago Center
Wed 11:04:44 PM 40.4608 -87.8686 179° South 345 397 32,400 885 Climbing Chicago Center
Wed 11:05:45 PM 40.3608 -87.8567 175° South 362 417 32,900 333 Climbing Chicago Center
Wed 11:06:32 PM 40.2744 -87.8392 171° South 376 433 33,000 55 Climbing Indianapolis Center
Wed 11:07:34 PM 40.1594 -87.8150 171° South 406 467 33,000  Level Indianapolis Center
Wed 11:08:36 PM 40.0381 -87.7906 171° South 429 494 33,000  Level Indianapolis Center
Wed 11:09:36 PM 39.9164 -87.7653 171° South 438 504 33,000  Level Indianapolis Center
Wed 11:10:37 PM 39.7947 -87.7414 171° South 440 506 33,000  Level Indianapolis Center
Wed 11:11:39 PM 39.6728 -87.7139 170° South 442 509 33,000  Level Indianapolis Center
Wed 11:12:40 PM 39.5497 -87.6906 172° South 444 511 33,000  Level Indianapolis Center
Wed 11:13:41 PM 39.4269 -87.6656 171° South 445 512 33,000  Level Indianapolis Center
Wed 11:14:43 PM 39.3036 -87.6397 171° South 446 513 33,000  Level Indianapolis Center
Wed 11:15:44 PM 39.1806 -87.6147 171° South 448 516 33,000  Level Indianapolis Center
Wed 11:16:45 PM 39.0553 -87.5897 171° South 451 519 33,000  Level Indianapolis Center
Wed 11:17:46 PM 38.9328 -87.5639 171° South 446 513 33,000  Level Indianapolis Center
Wed 11:18:48 PM 38.7836 -87.5353 171° South 450 518 33,000  Level Indianapolis Center
Wed 11:19:49 PM 38.6592 -87.5111 171° South 452 520 33,000  Level Indianapolis Center
Wed 11:20:50 PM 38.5356 -87.4856 171° South 450 518 33,000  Level Indianapolis Center
Wed 11:21:51 PM 38.4117 -87.4622 172° South 452 520 33,000  Level Indianapolis Center
Wed 11:22:52 PM 38.2892 -87.4381 171° South 449 517 33,000  Level Indianapolis Center
Wed 11:23:54 PM 38.1658 -87.4139 171° South 452 520 33,000  Level Indianapolis Center
Wed 11:24:55 PM 38.0431 -87.3900 171° South 450 518 33,000 -148 Level Indianapolis Center
Wed 11:25:56 PM 37.9200 -87.3653 171° South 449 517 32,700 -984 Descending Indianapolis Center
Wed 11:26:57 PM 37.7961 -87.3408 171° South 451 519 31,000 -1,918 Descending Indianapolis Center
Wed 11:27:58 PM 37.6642 -87.3156 171° South 456 525 28,800 -2,375 Descending Indianapolis Center
Wed 11:28:33 PM 37.5733 -87.2983 171° South 459 528 27,200 -2,589 Descending Memphis Center
Wed 11:29:33 PM 37.4478 -87.2772 172° South 459 528 24,700 -2,100 Descending Memphis Center
Wed 11:30:33 PM 37.3325 -87.2503 169° South 442 509 23,000 -850 Descending Memphis Center
Wed 11:31:33 PM 37.2272 -87.2050 161° South 415 478 23,000 -600 Level Memphis Center
Wed 11:32:33 PM 37.1197 -87.1519 159° South 409 471 21,800 -1,650 Descending Memphis Center
Wed 11:33:33 PM 37.0183 -87.1042 159° South 409 471 19,700 -2,050 Descending Memphis Center
Wed 11:34:33 PM 36.9169 -87.0564 159° South 399 459 17,700 -2,100 Descending Memphis Center
Wed 11:35:33 PM 36.8158 -87.0061 158° South 394 453 15,500 -1,950 Descending Memphis Center
Wed 11:36:33 PM 36.7292 -86.9656 159° South 389 448 13,800 -1,850 Descending Memphis Center
Wed 11:37:33 PM 36.6358 -86.9100 154° Southeast 377 434 11,800 -1,800 Descending Memphis Center
Wed 11:38:33 PM 36.5592 -86.8514 148° Southeast 348 400 10,200 -1,550 Descending Memphis Center
Wed 11:39:33 PM 36.4911 -86.8028 150° Southeast 300 345 8,700 -1,650 Descending Memphis Center
Wed 11:40:33 PM 36.4231 -86.7514 149° Southeast 278 320 6,900 -1,800 Descending Memphis Center
Wed 11:41:33 PM 36.3553 -86.7133 156° South 264 304 5,100 -1,800 Descending Memphis Center
Wed 11:42:33 PM 36.2875 -86.6856 162° South 259 298 3,300 -1,550 Descending Memphis Center
Wed 11:43:33 PM 36.2242 -86.6575 160° South 251 289 2,000 -1,000 Descending Memphis Center
Wed 11:44:33 PM 36.1744 -86.6672 189° South 202 232 1,300 -600 Descending Memphis Center
Wed 11:45:33 PM 36.1436 -86.6764 194° South 160 184 800 -300 Descending Memphis Center
Wed 11:46:33 PM 36.0936 -86.6839 187° South 160 184 700 -100 Descending Memphis Center
Wed 11:51:00 PM 36.1245 -86.6782 13° North  Level Estimated
Wed 11:58:00 PM 36.1245 -86.6782 13° North  Level Estimated
Wed 11:59:00 PM 36.1245 -86.6782 13° North  Level Estimated
Thu 12:00:00 AM 36.1245 -86.6782 13° North  Level Estimated
Thu 12:01:00 AM 36.1245 -86.6782 13° North  Level Estimated
Thu 12:02:00 AM 36.1245 -86.6782 13° North  Level Estimated
Thu 12:03:00 AM 36.1245 -86.6782 13° North  Level Estimated
Thu 12:04:00 AM 36.1245 -86.6782 13° North  Level Estimated
Thu 12:05:00 AM 36.1245 -86.6782 13° North  Level Estimated
Thu 12:06:00 AM 36.1245 -86.6782 13° North  Level Estimated
Thu 12:07:00 AM 36.1245 -86.6782 13° North  Level Estimated

Login

Don't have an account? Register now (free) for customized features, flight alerts, and more!